Time;durP1;ratioP1;P1;durP2;ratioP2;P2;SDS_P1;SDS_P2;PMS_P1;PMS_P2;Temp;Humidity;BMP_temperature;BMP_pressure;BME280_temperature;BME280_humidity;BME280_pressure;Samples;Min_cycle;Max_cycle;Signal;HPM_P1;HPM_P2
2023/11/08 00:01:07;;;;;;;8.30;2.53;;;;;;;9.92;100.00;101033.47;5316588;28;20580;-74
2023/11/08 00:03:40;;;;;;;4.70;1.55;;;;;;;9.88;100.00;101030.25;5319288;28;20461;-74
2023/11/08 00:06:12;;;;;;;4.50;1.88;;;;;;;9.93;100.00;101019.44;5316173;28;20020;-74
2023/11/08 00:08:45;;;;;;;5.53;2.08;;;;;;;9.90;100.00;101017.91;5315325;28;20437;-74
2023/11/08 00:11:17;;;;;;;4.43;1.30;;;;;;;9.90;100.00;101028.38;5311866;28;20027;-74
2023/11/08 00:13:54;;;;;;;3.40;1.60;;;;;;;10.01;100.00;101031.91;5314872;28;20028;-74
2023/11/08 00:16:26;;;;;;;5.57;2.17;;;;;;;9.85;100.00;101024.44;5318208;28;20028;-74
2023/11/08 00:18:58;;;;;;;5.35;1.80;;;;;;;9.78;100.00;101013.63;5312985;28;20440;-74
2023/11/08 00:21:30;;;;;;;9.20;1.80;;;;;;;9.82;100.00;101022.91;5303806;28;20057;-74
2023/11/08 00:24:02;;;;;;;6.78;2.10;;;;;;;9.81;100.00;101018.63;5315217;28;20419;-74
2023/11/08 00:26:34;;;;;;;5.32;1.90;;;;;;;9.81;100.00;101018.63;5315205;28;20035;-76
2023/11/08 00:29:06;;;;;;;5.93;1.48;;;;;;;9.76;100.00;101020.75;5315307;28;20034;-74
2023/11/08 00:31:38;;;;;;;4.13;1.90;;;;;;;9.72;100.00;101024.56;5308574;28;20027;-74
2023/11/08 00:34:13;;;;;;;6.20;2.20;;;;;;;9.71;100.00;101018.50;5315639;28;20034;-74
2023/11/08 00:36:45;;;;;;;5.78;2.13;;;;;;;9.70;100.00;101023.88;5317610;28;20032;-74
2023/11/08 00:39:18;;;;;;;4.75;1.58;;;;;;;9.70;100.00;101029.09;5296333;28;20055;-74
2023/11/08 00:41:49;;;;;;;5.28;2.00;;;;;;;9.69;100.00;101028.25;5295736;28;20036;-74
2023/11/08 00:44:21;;;;;;;7.50;2.17;;;;;;;9.67;100.00;101024.09;5314155;28;20525;-73
2023/11/08 00:46:54;;;;;;;6.15;1.92;;;;;;;9.64;100.00;101026.97;5307403;28;20412;-74
2023/11/08 00:49:25;;;;;;;4.43;1.90;;;;;;;9.64;100.00;101033.03;5306343;28;20051;-74
2023/11/08 00:52:00;;;;;;;5.47;1.95;;;;;;;9.61;100.00;101035.03;5314214;28;20118;-74
2023/11/08 00:54:33;;;;;;;4.80;2.22;;;;;;;9.61;100.00;101027.19;5316684;28;20431;-74
2023/11/08 00:57:08;;;;;;;3.85;1.80;;;;;;;9.60;100.00;101036.81;5317908;28;20038;-74
2023/11/08 00:59:40;;;;;;;4.30;1.80;;;;;;;9.59;100.00;101034.34;5316518;28;20030;-74
2023/11/08 01:02:12;;;;;;;7.47;2.00;;;;;;;9.56;100.00;101032.78;5306215;28;20031;-74
2023/11/08 01:04:44;;;;;;;4.45;1.65;;;;;;;9.52;100.00;101036.59;5302109;28;20143;-74
2023/11/08 01:07:16;;;;;;;7.10;1.85;;;;;;;9.55;100.00;101041.59;5317750;28;20665;-74
2023/11/08 01:09:48;;;;;;;3.95;1.70;;;;;;;9.56;100.00;101050.25;5317775;28;20568;-74
2023/11/08 01:12:20;;;;;;;5.32;1.95;;;;;;;9.54;100.00;101054.78;5316864;27;20645;-74
2023/11/08 01:14:52;;;;;;;4.30;1.60;;;;;;;9.52;100.00;101056.69;5315828;28;20380;-74
2023/11/08 01:17:24;;;;;;;6.50;2.10;;;;;;;9.55;100.00;101053.84;5308426;28;20040;-74
2023/11/08 01:19:56;;;;;;;7.33;2.13;;;;;;;9.55;100.00;101057.28;5315387;28;20058;-74
2023/11/08 01:22:28;;;;;;;7.88;2.08;;;;;;;9.52;100.00;101059.31;5310316;28;20110;-73
2023/11/08 01:25:00;;;;;;;6.60;2.22;;;;;;;9.51;100.00;101068.94;5315926;28;20103;-74
2023/11/08 01:27:32;;;;;;;5.60;2.13;;;;;;;9.52;100.00;101067.16;5309324;28;20034;-74
2023/11/08 01:30:04;;;;;;;4.28;1.52;;;;;;;9.50;100.00;101055.00;5307641;28;20114;-74
2023/11/08 01:32:36;;;;;;;4.32;1.83;;;;;;;9.54;100.00;101060.00;5310126;28;20035;-74
2023/11/08 01:35:08;;;;;;;3.15;1.90;;;;;;;9.43;100.00;101047.75;5312499;28;20049;-73
2023/11/08 01:37:40;;;;;;;4.55;2.05;;;;;;;9.46;100.00;101052.75;5308441;28;20031;-74
2023/11/08 01:40:12;;;;;;;6.30;1.77;;;;;;;9.48;100.00;101062.16;5314126;28;20024;-74
2023/11/08 01:42:46;;;;;;;4.97;1.70;;;;;;;9.48;100.00;101056.91;5307155;28;20058;-74
2023/11/08 01:45:18;;;;;;;6.15;2.42;;;;;;;9.47;100.00;101057.00;5308672;28;20024;-73
2023/11/08 01:47:50;;;;;;;5.85;1.85;;;;;;;9.45;100.00;101053.69;5316021;28;20026;-74
2023/11/08 01:50:23;;;;;;;5.03;2.03;;;;;;;9.45;100.00;101057.16;5315422;28;20031;-74
2023/11/08 01:52:55;;;;;;;4.45;1.85;;;;;;;9.48;100.00;101054.31;5306323;28;20036;-74
2023/11/08 01:55:27;;;;;;;7.00;1.83;;;;;;;9.50;100.00;101062.03;5316398;28;20043;-74
2023/11/08 01:57:59;;;;;;;3.67;1.40;;;;;;;9.48;100.00;101070.00;5313414;28;20035;-74
2023/11/08 02:00:33;;;;;;;5.68;2.10;;;;;;;9.45;100.00;101067.59;5292796;28;20039;-74
2023/11/08 02:03:05;;;;;;;6.85;1.90;;;;;;;9.48;100.00;101077.00;5308909;28;20035;-74
2023/11/08 02:05:37;;;;;;;7.88;2.30;;;;;;;9.49;100.00;101079.50;5312400;28;20032;-74
2023/11/08 02:08:10;;;;;;;7.10;1.83;;;;;;;9.49;100.00;101078.66;5309602;28;20019;-74
2023/11/08 02:10:42;;;;;;;4.50;2.05;;;;;;;9.53;100.00;101074.03;5316705;28;20477;-73
2023/11/08 02:13:14;;;;;;;5.68;2.30;;;;;;;9.43;100.00;101059.06;5304728;28;20038;-74
2023/11/08 02:15:46;;;;;;;4.20;1.55;;;;;;;9.52;100.00;101073.22;5312729;28;20030;-74
2023/11/08 02:18:18;;;;;;;5.10;1.52;;;;;;;9.54;100.00;101078.31;5308051;28;20032;-74
2023/11/08 02:20:50;;;;;;;5.30;1.63;;;;;;;9.55;100.00;101075.59;5305639;28;20465;-73
2023/11/08 02:23:21;;;;;;;4.90;1.92;;;;;;;9.57;100.00;101080.69;5314124;28;20035;-73
2023/11/08 02:25:54;;;;;;;6.47;2.25;;;;;;;9.57;100.00;101080.69;5312474;28;20024;-74
2023/11/08 02:28:26;;;;;;;5.00;1.75;;;;;;;9.62;100.00;101087.25;5314130;28;20563;-74
2023/11/08 02:30:58;;;;;;;6.78;1.65;;;;;;;9.66;100.00;101078.22;5306040;28;20028;-73
2023/11/08 02:33:30;;;;;;;6.32;1.75;;;;;;;9.62;100.00;101083.78;5306506;28;20028;-73
2023/11/08 02:36:03;;;;;;;6.90;1.98;;;;;;;9.62;100.00;101082.03;5314027;28;20028;-73
2023/11/08 02:38:34;;;;;;;3.88;1.50;;;;;;;9.62;100.00;101082.03;5313647;28;20024;-73
2023/11/08 02:41:06;;;;;;;3.47;1.52;;;;;;;9.63;100.00;101086.28;5304868;28;20551;-74
2023/11/08 02:43:39;;;;;;;5.38;1.65;;;;;;;9.63;100.00;101077.63;5309123;28;20396;-73
2023/11/08 02:46:11;;;;;;;6.43;1.70;;;;;;;9.67;100.00;101084.28;5296120;28;20476;-74
2023/11/08 02:48:43;;;;;;;4.45;1.70;;;;;;;9.61;100.00;101082.94;5307811;28;20020;-73
2023/11/08 02:51:15;;;;;;;3.30;1.45;;;;;;;9.60;100.00;101078.69;5316096;28;20106;-74
2023/11/08 02:53:47;;;;;;;5.55;1.58;;;;;;;9.56;100.00;101085.09;5295549;28;20040;-74
2023/11/08 02:56:18;;;;;;;4.43;1.67;;;;;;;9.55;100.00;101087.84;5305394;28;20115;-73
2023/11/08 02:58:56;;;;;;;4.95;1.67;;;;;;;9.55;100.00;101087.84;5315490;28;20615;-73
2023/11/08 03:01:29;;;;;;;5.72;2.00;;;;;;;9.54;100.00;101091.38;5311738;28;20036;-73
2023/11/08 03:04:01;;;;;;;6.88;1.85;;;;;;;9.54;100.00;101086.16;5312831;28;20047;-74
2023/11/08 03:06:33;;;;;;;4.85;1.90;;;;;;;9.53;100.00;101087.94;5305910;28;20508;-73
2023/11/08 03:09:06;;;;;;;4.22;1.52;;;;;;;9.56;100.00;101089.50;5299732;28;20028;-73
2023/11/08 03:11:38;;;;;;;5.78;1.50;;;;;;;9.52;100.00;101086.28;5310526;28;20019;-73
2023/11/08 03:14:10;;;;;;;5.18;1.70;;;;;;;9.47;100.00;101089.25;5307066;28;20123;-73
2023/11/08 03:16:42;;;;;;;6.00;1.70;;;;;;;9.48;100.00;101101.38;5297569;28;20199;-73
2023/11/08 03:19:14;;;;;;;4.25;1.70;;;;;;;9.49;100.00;101099.59;5305803;28;20124;-73
2023/11/08 03:21:52;;;;;;;4.13;1.67;;;;;;;9.56;100.00;101090.31;5306717;28;20023;-73
2023/11/08 03:24:25;;;;;;;5.25;1.67;;;;;;;9.45;100.00;101099.00;5311494;28;20028;-74
2023/11/08 03:26:56;;;;;;;4.65;1.35;;;;;;;9.48;100.00;101097.94;5312464;28;20374;-73
2023/11/08 03:29:30;;;;;;;3.15;1.30;;;;;;;9.44;100.00;101097.34;5315572;28;20110;-73
2023/11/08 03:32:02;;;;;;;5.18;1.38;;;;;;;9.42;100.00;101093.97;5312426;28;20024;-73
2023/11/08 03:34:34;;;;;;;3.78;1.70;;;;;;;9.41;100.00;101089.72;5317406;28;20070;-74
2023/11/08 03:37:06;;;;;;;3.25;1.63;;;;;;;9.38;100.00;101078.66;5316120;28;20032;-73
2023/11/08 03:39:38;;;;;;;5.47;1.70;;;;;;;9.39;100.00;101088.16;5315368;27;20023;-73
2023/11/08 03:42:10;;;;;;;4.85;1.58;;;;;;;9.41;100.00;101081.88;5311671;27;20027;-74
2023/11/08 03:44:42;;;;;;;7.18;1.80;;;;;;;9.38;100.00;101092.56;5316739;28;20388;-73
2023/11/08 03:47:14;;;;;;;4.45;1.75;;;;;;;9.39;100.00;101094.22;5311373;28;20031;-73
2023/11/08 03:49:45;;;;;;;3.03;1.17;;;;;;;9.38;100.00;101089.94;5315437;27;20023;-73
2023/11/08 03:52:17;;;;;;;4.72;1.85;;;;;;;9.38;100.00;101092.56;5312543;28;20027;-73
2023/11/08 03:54:51;;;;;;;3.92;1.27;;;;;;;9.36;100.00;101091.84;5317925;28;20023;-73
2023/11/08 03:57:22;;;;;;;2.92;1.20;;;;;;;9.37;100.00;101090.91;5312951;27;20039;-73
2023/11/08 03:59:54;;;;;;;4.95;1.50;;;;;;;9.37;100.00;101090.06;5314876;27;20130;-73
2023/11/08 04:02:26;;;;;;;5.38;1.75;;;;;;;9.38;100.00;101102.19;5313643;28;20031;-73
2023/11/08 04:04:58;;;;;;;3.00;1.40;;;;;;;9.36;100.00;101094.47;5317246;27;20477;-73
2023/11/08 04:07:30;;;;;;;3.65;1.30;;;;;;;9.30;100.00;101094.91;5312838;28;20471;-74
2023/11/08 04:10:03;;;;;;;4.67;1.07;;;;;;;9.27;100.00;101100.38;5311635;28;20394;-73
2023/11/08 04:12:34;;;;;;;2.75;1.30;;;;;;;9.26;100.00;101093.50;5314030;28;20499;-73
2023/11/08 04:15:07;;;;;;;4.90;1.85;;;;;;;9.23;100.00;101097.16;5314479;28;20111;-73
2023/11/08 04:17:39;;;;;;;4.20;1.48;;;;;;;9.21;100.00;101096.47;5315727;28;20409;-73
2023/11/08 04:20:12;;;;;;;4.57;1.70;;;;;;;9.23;100.00;101097.16;5312823;28;20036;-74
2023/11/08 04:22:44;;;;;;;4.25;1.40;;;;;;;9.25;100.00;101103.13;5318239;27;20019;-73
2023/11/08 04:25:16;;;;;;;4.22;1.58;;;;;;;9.21;100.00;101109.53;5314127;28;20032;-73
2023/11/08 04:27:48;;;;;;;4.25;1.77;;;;;;;9.22;100.00;101110.34;5316645;28;20031;-73
2023/11/08 04:30:20;;;;;;;3.92;1.70;;;;;;;9.18;100.00;101106.31;5316750;27;20126;-73
2023/11/08 04:32:52;;;;;;;4.80;1.35;;;;;;;9.18;100.00;101103.69;5314895;28;20019;-73
2023/11/08 04:35:24;;;;;;;5.50;1.83;;;;;;;9.15;100.00;101102.13;5313008;28;20115;-73
2023/11/08 04:37:56;;;;;;;4.20;1.50;;;;;;;9.15;100.00;101103.91;5315002;28;20106;-74
2023/11/08 04:40:28;;;;;;;5.13;1.55;;;;;;;9.16;100.00;101102.97;5309359;28;20103;-73
2023/11/08 04:43:00;;;;;;;5.10;1.30;;;;;;;9.13;100.00;101105.78;5313094;28;20024;-73
2023/11/08 04:45:32;;;;;;;6.17;1.67;;;;;;;9.15;100.00;101109.16;5312063;28;20028;-73
2023/11/08 04:48:04;;;;;;;5.53;1.88;;;;;;;9.13;100.00;101109.28;5309524;28;20028;-73
2023/11/08 04:50:36;;;;;;;5.32;1.67;;;;;;;9.12;100.00;101106.75;5312867;28;20396;-73
2023/11/08 04:53:08;;;;;;;3.45;1.73;;;;;;;9.08;100.00;101115.78;5311113;28;20034;-73
2023/11/08 04:55:40;;;;;;;2.88;1.15;;;;;;;9.11;100.00;101118.16;5309440;28;20023;-73
2023/11/08 04:58:12;;;;;;;5.67;1.50;;;;;;;9.12;100.00;101110.19;5310809;28;20028;-74
2023/11/08 05:00:44;;;;;;;4.20;1.70;;;;;;;9.11;100.00;101111.16;5310583;28;20422;-73
2023/11/08 05:03:16;;;;;;;6.05;1.65;;;;;;;9.09;100.00;101107.84;5307938;28;20388;-73
2023/11/08 05:05:49;;;;;;;7.00;1.90;;;;;;;9.11;100.00;101112.94;5307210;28;20558;-73
2023/11/08 05:08:20;;;;;;;5.65;1.52;;;;;;;9.07;100.00;101114.94;5307126;28;20023;-73
2023/11/08 05:10:52;;;;;;;4.07;1.65;;;;;;;9.09;100.00;101106.97;5308188;28;20023;-74
2023/11/08 05:13:24;;;;;;;5.32;1.40;;;;;;;9.09;100.00;101110.44;5305293;28;20545;-73
2023/11/08 05:15:56;;;;;;;6.28;1.67;;;;;;;9.11;100.00;101120.78;5305255;28;20389;-73
2023/11/08 05:18:28;;;;;;;3.97;1.27;;;;;;;9.08;100.00;101113.16;5303084;28;20213;-74
2023/11/08 05:21:00;;;;;;;5.50;1.52;;;;;;;9.09;100.00;101123.50;5315261;28;20027;-73
2023/11/08 05:23:33;;;;;;;6.53;1.80;;;;;;;9.11;100.00;101123.38;5312516;28;20123;-73
2023/11/08 05:26:06;;;;;;;6.68;1.77;;;;;;;9.08;100.00;101119.22;5305899;28;20481;-73
2023/11/08 05:28:38;;;;;;;6.53;1.88;;;;;;;9.09;100.00;101122.66;5313984;28;20034;-73
2023/11/08 05:31:11;;;;;;;3.95;1.52;;;;;;;9.06;100.00;101108.06;5295904;28;20119;-73
2023/11/08 05:33:43;;;;;;;4.97;1.42;;;;;;;8.97;100.00;101113.94;5312150;28;20031;-73
2023/11/08 05:36:15;;;;;;;4.07;1.30;;;;;;;8.94;100.00;101112.41;5309942;28;20031;-73
2023/11/08 05:38:47;;;;;;;6.80;1.80;;;;;;;8.98;100.00;101118.25;5313943;28;20039;-73
2023/11/08 05:41:19;;;;;;;4.75;1.65;;;;;;;8.90;100.00;101113.59;5313047;28;20658;-73
2023/11/08 05:43:52;;;;;;;5.85;1.40;;;;;;;8.93;100.00;101110.72;5312854;28;20040;-73
2023/11/08 05:46:24;;;;;;;4.60;1.70;;;;;;;8.88;100.00;101107.63;5314404;28;20028;-73
2023/11/08 05:48:57;;;;;;;5.23;1.20;;;;;;;8.89;100.00;101109.28;5311158;28;20039;-74
2023/11/08 05:51:29;;;;;;;3.97;1.35;;;;;;;8.90;100.00;101108.34;5294373;28;20035;-74
2023/11/08 05:54:01;;;;;;;7.57;1.58;;;;;;;8.83;100.00;101120.19;5311566;28;20583;-74
2023/11/08 05:56:33;;;;;;;5.13;1.95;;;;;;;8.88;100.00;101112.84;5303950;28;20492;-73
2023/11/08 05:59:06;;;;;;;5.38;1.52;;;;;;;8.86;100.00;101108.66;5304543;28;20028;-73
2023/11/08 06:01:37;;;;;;;5.35;1.50;;;;;;;8.88;100.00;101112.03;5307199;28;20051;-73
2023/11/08 06:04:09;;;;;;;3.65;1.35;;;;;;;8.84;100.00;101119.25;5305913;28;20118;-74
2023/11/08 06:06:41;;;;;;;5.30;1.50;;;;;;;8.84;100.00;101115.81;5308576;28;20028;-73
2023/11/08 06:09:14;;;;;;;7.30;2.00;;;;;;;8.82;100.00;101115.06;5314451;28;20565;-74
2023/11/08 06:11:46;;;;;;;;;;;;;;;9.53;100.00;101116.72;5313810;28;20042;-73
2023/11/08 06:14:18;;;;;;;5.82;1.83;;;;;;;8.84;100.00;101121.84;5307849;28;19908;-73
2023/11/08 06:16:51;;;;;;;4.15;1.67;;;;;;;8.76;100.00;101113.75;5309371;28;20099;-73
2023/11/08 06:19:23;;;;;;;4.35;1.30;;;;;;;8.75;100.00;101120.75;5304882;28;20150;-73
2023/11/08 06:21:55;;;;;;;8.90;1.83;;;;;;;8.73;100.00;101122.63;5301538;28;20378;-74
2023/11/08 06:24:27;;;;;;;5.32;1.67;;;;;;;8.73;100.00;101130.47;5316854;28;20027;-73
2023/11/08 06:27:00;;;;;;;3.97;1.50;;;;;;;8.71;100.00;101124.53;5309480;28;20036;-73
2023/11/08 06:29:36;;;;;;;4.18;1.45;;;;;;;8.73;100.00;101127.88;5301118;28;20031;-73
2023/11/08 06:32:08;;;;;;;4.97;1.75;;;;;;;8.68;100.00;101123.94;5310460;28;20022;-74
2023/11/08 06:34:40;;;;;;;6.63;1.75;;;;;;;8.68;100.00;101127.38;5296649;28;20477;-74
2023/11/08 06:37:15;;;;;;;5.10;1.67;;;;;;;8.78;100.00;101127.53;5306891;28;20381;-74
2023/11/08 06:39:47;;;;;;;5.90;1.77;;;;;;;8.72;100.00;101123.59;5312794;28;20027;-73
2023/11/08 06:42:19;;;;;;;6.25;1.80;;;;;;;8.76;100.00;101126.81;5309919;28;20024;-75
2023/11/08 06:44:51;;;;;;;4.70;1.80;;;;;;;8.78;100.00;101120.50;5307425;28;20034;-75
2023/11/08 06:47:24;;;;;;;5.65;2.30;;;;;;;8.81;100.00;101129.09;5298652;28;20034;-75
2023/11/08 06:49:56;;;;;;;5.97;1.88;;;;;;;8.82;100.00;101121.13;5310308;28;20031;-75
2023/11/08 06:52:28;;;;;;;8.02;2.22;;;;;;;8.85;100.00;101127.91;5301218;28;20027;-74
2023/11/08 06:55:00;;;;;;;7.65;2.80;;;;;;;8.86;100.00;101121.72;5304316;28;20032;-74
2023/11/08 06:57:32;;;;;;;6.20;2.83;;;;;;;8.88;100.00;101128.53;5303843;28;20023;-75
2023/11/08 07:00:07;;;;;;;7.65;2.85;;;;;;;8.89;100.00;101137.19;5297696;28;20038;-75
2023/11/08 07:02:39;;;;;;;5.90;2.67;;;;;;;8.91;100.00;101133.53;5314489;28;20027;-73
2023/11/08 07:05:12;;;;;;;6.50;2.90;;;;;;;8.92;100.00;101129.97;5312562;28;20135;-74
2023/11/08 07:07:44;;;;;;;6.78;3.28;;;;;;;8.94;100.00;101133.31;5314014;28;20024;-74
2023/11/08 07:10:16;;;;;;;6.03;2.40;;;;;;;8.97;100.00;101133.06;5310051;28;20050;-74
2023/11/08 07:12:48;;;;;;;7.70;2.95;;;;;;;9.01;100.00;101131.06;5310258;28;20024;-74
2023/11/08 07:15:20;;;;;;;8.63;2.85;;;;;;;9.01;100.00;101131.88;5317000;28;20038;-74
2023/11/08 07:17:52;;;;;;;5.85;2.70;;;;;;;9.06;100.00;101133.34;5319445;28;20031;-74
2023/11/08 07:20:24;;;;;;;8.18;2.85;;;;;;;9.07;100.00;101135.03;5317375;28;20024;-75
2023/11/08 07:22:55;;;;;;;9.15;3.35;;;;;;;9.08;100.00;101137.50;5319762;28;20477;-73
2023/11/08 07:25:27;;;;;;;13.07;3.22;;;;;;;9.12;100.00;101140.72;5320147;28;20024;-76
2023/11/08 07:28:00;;;;;;;6.57;2.80;;;;;;;9.13;100.00;101139.78;5302287;28;20049;-74
2023/11/08 07:30:31;;;;;;;7.78;2.90;;;;;;;9.13;100.00;101131.94;5294268;28;20043;-77
2023/11/08 07:33:03;;;;;;;10.07;3.08;;;;;;;9.15;100.00;101136.09;5315191;28;20036;-74
2023/11/08 07:35:36;;;;;;;5.57;3.05;;;;;;;9.16;100.00;101139.56;5291649;28;20485;-74
2023/11/08 07:38:08;;;;;;;8.48;2.95;;;;;;;9.17;100.00;101134.22;5307927;28;20480;-75
2023/11/08 07:40:42;;;;;;;5.93;3.58;;;;;;;9.16;100.00;101134.31;5313771;28;20028;-74
2023/11/08 07:43:15;;;;;;;8.02;3.13;;;;;;;9.18;100.00;101135.06;5317435;28;20023;-74
2023/11/08 07:45:48;;;;;;;5.75;2.83;;;;;;;9.21;100.00;101127.81;5316558;28;20028;-74
2023/11/08 07:48:20;;;;;;;5.35;2.70;;;;;;;9.24;100.00;101126.75;5315949;28;20409;-74
2023/11/08 07:50:53;;;;;;;6.25;3.30;;;;;;;9.28;100.00;101130.81;5315214;28;20032;-74
2023/11/08 07:53:24;;;;;;;7.50;2.88;;;;;;;9.30;100.00;101136.75;5315573;28;20024;-75
2023/11/08 07:55:56;;;;;;;6.28;3.28;;;;;;;9.33;100.00;101136.53;5318443;28;20040;-74
2023/11/08 07:58:28;;;;;;;7.93;2.60;;;;;;;9.31;100.00;101134.97;5311637;28;20115;-75
2023/11/08 08:01:00;;;;;;;6.97;3.10;;;;;;;9.40;100.00;101150.00;5308948;28;20049;-74
2023/11/08 08:03:33;;;;;;;6.78;3.08;;;;;;;9.44;100.00;101152.25;5310658;28;20126;-74
2023/11/08 08:06:07;;;;;;;8.40;3.72;;;;;;;9.49;100.00;101152.72;5304029;28;20032;-74
2023/11/08 08:08:39;;;;;;;9.52;3.78;;;;;;;9.53;100.00;101150.72;5304085;28;20016;-73
2023/11/08 08:11:12;;;;;;;7.43;2.55;;;;;;;9.56;100.00;101155.72;5303446;28;20400;-74
2023/11/08 08:13:45;;;;;;;5.75;2.70;;;;;;;9.59;100.00;101144.19;5312001;28;20027;-74
2023/11/08 08:16:19;;;;;;;8.68;3.35;;;;;;;9.59;100.00;101154.66;5314475;28;20027;-74
2023/11/08 08:18:51;;;;;;;7.53;3.67;;;;;;;9.54;100.00;101148.94;5314540;28;20089;-74
2023/11/08 08:21:23;;;;;;;8.05;2.95;;;;;;;9.63;100.00;101159.53;5308580;28;20036;-74
2023/11/08 08:23:55;;;;;;;5.80;2.42;;;;;;;9.68;100.00;101156.56;5306699;28;20465;-74
2023/11/08 08:26:27;;;;;;;6.75;2.40;;;;;;;9.74;100.00;101154.31;5311044;28;20181;-74
2023/11/08 08:29:00;;;;;;;8.40;3.33;;;;;;;9.84;100.00;101154.44;5313229;28;20031;-74
2023/11/08 08:31:33;;;;;;;11.38;3.22;;;;;;;9.90;100.00;101151.38;5313768;27;20027;-75
2023/11/08 08:34:07;;;;;;;5.63;2.90;;;;;;;9.99;100.00;101152.44;5300778;28;20031;-74
2023/11/08 08:36:39;;;;;;;8.23;3.20;;;;;;;10.09;100.00;101160.41;5309696;28;20034;-75
2023/11/08 08:39:15;;;;;;;10.10;3.28;;;;;;;10.15;100.00;101157.31;5305702;28;20031;-74
2023/11/08 08:41:47;;;;;;;9.52;2.53;;;;;;;10.18;100.00;101165.75;5315273;28;20370;-74
2023/11/08 08:44:19;;;;;;;6.85;2.85;;;;;;;10.16;100.00;101156.38;5315242;28;20038;-74
2023/11/08 08:46:51;;;;;;;5.72;2.55;;;;;;;10.26;100.00;101159.94;5303525;28;20055;-75
2023/11/08 08:49:23;;;;;;;6.93;2.55;;;;;;;10.29;100.00;101148.41;5309371;28;20059;-75
2023/11/08 08:51:55;;;;;;;6.25;2.47;;;;;;;10.34;100.00;101147.09;5315993;28;20043;-74
2023/11/08 08:54:27;;;;;;;8.13;2.17;;;;;;;10.41;100.00;101139.56;5313898;28;20039;-75
2023/11/08 08:57:00;;;;;;;7.57;2.60;;;;;;;10.41;100.00;101150.88;5310345;28;20031;-75
2023/11/08 08:59:33;;;;;;;9.02;2.53;;;;;;;10.43;100.00;101149.00;5300930;28;20028;-74
2023/11/08 09:02:05;;;;;;;10.05;2.67;;;;;;;10.52;100.00;101141.34;5319601;28;20496;-74
2023/11/08 09:04:39;;;;;;;9.55;2.67;;;;;;;10.56;100.00;101142.75;5320619;28;20186;-74
2023/11/08 09:07:11;;;;;;;7.60;2.43;;;;;;;10.63;100.00;101146.56;5319307;28;20020;-75
2023/11/08 09:09:43;;;;;;;10.00;2.40;;;;;;;10.60;100.00;101141.56;5320218;28;20027;-74
2023/11/08 09:12:15;;;;;;;9.20;2.55;;;;;;;10.68;100.00;101141.78;5319733;28;20393;-75
2023/11/08 09:14:52;;;;;;;7.30;2.38;;;;;;;10.80;100.00;101130.31;5318331;28;20023;-75
2023/11/08 09:17:24;;;;;;;8.52;2.13;;;;;;;10.73;100.00;101133.56;5317305;28;20050;-75
2023/11/08 09:19:56;;;;;;;6.53;2.15;;;;;;;10.70;100.00;101132.84;5319809;28;20026;-75
2023/11/08 09:22:28;;;;;;;5.22;1.80;;;;;;;10.78;100.00;101131.41;5316243;27;20417;-74
2023/11/08 09:25:01;;;;;;;5.47;2.00;;;;;;;10.83;100.00;101137.09;5315925;28;20036;-75
2023/11/08 09:27:32;;;;;;;6.30;1.67;;;;;;;10.92;100.00;101133.72;5316468;28;20031;-74
2023/11/08 09:30:05;;;;;;;7.45;2.30;;;;;;;10.99;100.00;101134.91;5310397;28;20035;-74
2023/11/08 09:32:37;;;;;;;7.82;2.15;;;;;;;11.08;100.00;101131.50;5313437;28;20023;-75
2023/11/08 09:35:09;;;;;;;5.50;2.20;;;;;;;11.16;100.00;101151.84;5317815;28;20399;-74
2023/11/08 09:37:41;;;;;;;8.57;2.77;;;;;;;11.31;100.00;101139.25;5319007;28;20384;-74
2023/11/08 09:40:15;;;;;;;8.32;2.75;;;;;;;11.34;100.00;101133.78;5315976;28;20019;-74
2023/11/08 09:42:47;;;;;;;;;;;;;;;12.03;100.00;101136.66;5317185;27;20024;-75
2023/11/08 09:45:22;;;;;;;10.25;2.38;;;;;;;11.50;100.00;101135.94;5315478;28;20266;-75
2023/11/08 09:47:55;;;;;;;6.28;1.90;;;;;;;11.50;100.00;101128.06;5318425;28;20031;-75
2023/11/08 09:50:29;;;;;;;;;;;;;;;12.20;100.00;101127.31;5316777;28;20020;-74
2023/11/08 09:53:00;;;;;;;9.00;2.53;;;;;;;11.67;100.00;101138.81;5320666;28;19919;-74
2023/11/08 09:55:32;;;;;;;10.45;2.42;;;;;;;11.59;100.00;101135.16;5330928;28;20027;-74
2023/11/08 09:58:09;;;;;;;8.20;2.67;;;;;;;11.62;100.00;101137.53;5314052;28;20031;-75
2023/11/08 10:00:41;;;;;;;6.00;2.40;;;;;;;11.59;100.00;101130.75;5306976;28;20042;-75
2023/11/08 10:03:16;;;;;;;9.27;2.25;;;;;;;11.68;100.00;101134.38;5296382;28;20185;-75
2023/11/08 10:05:48;;;;;;;7.13;2.13;;;;;;;11.67;100.00;101130.94;5295557;28;20031;-75
2023/11/08 10:08:20;;;;;;;9.20;2.55;;;;;;;11.69;100.00;101125.53;5296609;28;20020;-75
2023/11/08 10:10:58;;;;;;;8.23;2.80;;;;;;;11.80;100.00;101125.47;5295111;28;20077;-75
2023/11/08 10:13:48;;;;;;;5.32;2.38;;;;;;;11.89;100.00;101116.84;5296944;28;20393;-75
2023/11/08 10:16:22;;;;;;;8.68;2.47;;;;;;;11.75;100.00;101116.34;5295549;28;20031;-75
2023/11/08 10:18:55;;;;;;;6.53;2.83;;;;;;;11.73;100.00;101115.63;5295943;28;20035;-75
2023/11/08 10:21:27;;;;;;;9.75;2.72;;;;;;;11.77;100.00;101117.84;5295719;28;20040;-74
2023/11/08 10:24:10;;;;;;;7.38;2.67;;;;;;;11.93;100.00;101113.00;5287414;28;20063;-75
2023/11/08 10:26:43;;;;;;;6.72;2.03;;;;;;;11.81;100.00;101098.25;5287446;28;20025;-75
2023/11/08 10:29:15;;;;;;;5.43;2.00;;;;;;;11.88;100.00;101099.41;5295479;28;20043;-75
2023/11/08 10:31:47;;;;;;;15.25;2.60;;;;;;;11.89;100.00;101103.72;5297532;28;20032;-74
2023/11/08 10:34:24;;;;;;;8.60;2.10;;;;;;;11.99;100.00;101087.16;5297420;28;20484;-74
2023/11/08 10:36:56;;;;;;;5.40;1.73;;;;;;;11.97;100.00;101094.31;5295604;28;20043;-73
2023/11/08 10:39:29;;;;;;;6.30;2.00;;;;;;;12.00;100.00;101083.56;5296251;28;20050;-75
2023/11/08 10:42:02;;;;;;;7.80;2.30;;;;;;;11.97;100.00;101063.66;5298551;28;20369;-75
2023/11/08 10:44:34;;;;;;;6.03;1.95;;;;;;;12.06;100.00;101077.78;5292507;28;20027;-75
2023/11/08 10:47:06;;;;;;;5.25;1.85;;;;;;;11.99;100.00;101068.78;5299557;28;20486;-75
2023/11/08 10:49:39;;;;;;;5.03;2.00;;;;;;;12.08;100.00;101074.03;5300513;28;20381;-74
2023/11/08 10:52:12;;;;;;;6.28;2.50;;;;;;;12.07;100.00;101075.00;5302048;28;20028;-75
2023/11/08 10:54:44;;;;;;;;;;;;;;;12.66;100.00;101057.53;5300988;28;20503;-74
2023/11/08 10:57:18;;;;;;;9.05;2.20;;;;;;;12.11;100.00;101050.13;5298986;28;19913;-75
2023/11/08 10:59:51;;;;;;;6.78;2.30;;;;;;;12.05;100.00;101052.50;5302274;28;20042;-74
2023/11/08 11:02:28;;;;;;;8.95;2.65;;;;;;;12.11;100.00;101044.06;5316159;28;20028;-75
2023/11/08 11:05:08;;;;;;;8.00;2.00;;;;;;;12.21;100.00;101050.19;5313976;28;20042;-75
2023/11/08 11:07:41;;;;;;;7.00;1.80;;;;;;;12.21;100.00;101041.47;5314588;28;20024;-75
2023/11/08 11:10:15;;;;;;;8.13;2.00;;;;;;;12.20;100.00;101032.75;5315368;28;20015;-75
2023/11/08 11:12:46;;;;;;;8.00;1.83;;;;;;;12.28;100.00;101043.41;5314977;28;20500;-74
2023/11/08 11:15:24;;;;;;;8.32;2.20;;;;;;;12.37;100.00;101039.13;5294742;28;20040;-75
2023/11/08 11:18:00;;;;;;;5.55;2.13;;;;;;;12.52;100.00;101037.75;5312121;28;20035;-75
2023/11/08 11:20:38;;;;;;;9.13;2.33;;;;;;;12.68;100.00;101025.84;5311841;28;20027;-75
2023/11/08 11:23:33;;;;;;;5.25;1.55;;;;;;;12.95;100.00;101028.59;5311763;28;20035;-75
2023/11/08 11:26:05;;;;;;;6.38;1.50;;;;;;;12.77;100.00;101025.84;5339248;27;20062;-75
2023/11/08 11:28:52;;;;;;;5.75;1.98;;;;;;;13.05;100.00;101018.88;5336516;27;20085;-74
2023/11/08 11:31:36;;;;;;;4.75;1.70;;;;;;;12.95;100.00;101004.91;5338287;27;20023;-74
2023/11/08 11:34:20;;;;;;;5.93;1.88;;;;;;;13.05;100.00;101008.38;5339231;27;20368;-77
2023/11/08 11:39:34;;;;;;;6.60;1.83;;;;;;;12.98;100.00;101006.44;5337816;27;20664;-75
2023/11/08 11:42:18;;;;;;;4.78;1.60;;;;;;;13.22;100.00;101000.69;5338893;27;20460;-74
2023/11/08 11:44:57;;;;;;;7.88;1.95;;;;;;;13.19;100.00;100996.56;5334801;27;20029;-77
2023/11/08 11:47:29;;;;;;;5.45;2.20;;;;;;;13.02;100.00;100992.88;5335408;27;20026;-77
2023/11/08 11:50:07;;;;;;;5.63;1.60;;;;;;;13.01;100.00;100995.66;5337158;27;20443;-75
2023/11/08 11:52:42;;;;;;;6.35;1.35;;;;;;;13.00;100.00;101000.09;5336103;27;20034;-75